sensor_id;sensor_type;location;lat;lon;timestamp;pressure;altitude;pressure_sealevel;temperature;humidity
25110;BME280;13507;49.030;11.940;2023-01-25T00:01:14;98575.72;;;18.34;49.71
25110;BME280;13507;49.030;11.940;2023-01-25T00:02:37;98567.75;;;18.34;49.42
25110;BME280;13507;49.030;11.940;2023-01-25T00:03:58;98578.47;;;18.39;49.42
25110;BME280;13507;49.030;11.940;2023-01-25T00:05:22;98574.66;;;18.35;49.02
25110;BME280;13507;49.030;11.940;2023-01-25T00:06:42;98574.66;;;18.35;49.27
25110;BME280;13507;49.030;11.940;2023-01-25T00:08:05;98577.66;;;18.39;49.12
25110;BME280;13507;49.030;11.940;2023-01-25T00:09:26;98570.97;;;18.36;49.53
25110;BME280;13507;49.030;11.940;2023-01-25T00:10:49;98569.34;;;18.35;49.37
25110;BME280;13507;49.030;11.940;2023-01-25T00:12:10;98575.22;;;18.37;49.18
25110;BME280;13507;49.030;11.940;2023-01-25T00:13:31;98575.81;;;18.39;48.95
25110;BME280;13507;49.030;11.940;2023-01-25T00:14:54;98570.97;;;18.36;49.27
25110;BME280;13507;49.030;11.940;2023-01-25T00:16:15;98567.75;;;18.34;49.61
25110;BME280;13507;49.030;11.940;2023-01-25T00:17:38;98568.88;;;18.38;49.46
25110;BME280;13507;49.030;11.940;2023-01-25T00:18:59;98569.91;;;18.37;49.40
25110;BME280;13507;49.030;11.940;2023-01-25T00:20:23;98571.78;;;18.37;49.23
25110;BME280;13507;49.030;11.940;2023-01-25T00:21:44;98574.44;;;18.37;49.00
25110;BME280;13507;49.030;11.940;2023-01-25T00:23:05;98566.22;;;18.38;49.51
25110;BME280;13507;49.030;11.940;2023-01-25T00:24:28;98568.63;;;18.40;48.89
25110;BME280;13507;49.030;11.940;2023-01-25T00:25:55;98581.13;;;18.39;49.11
25110;BME280;13507;49.030;11.940;2023-01-25T00:27:17;98572.81;;;18.36;49.22
25110;BME280;13507;49.030;11.940;2023-01-25T00:28:40;98572.56;;;18.37;49.06
25110;BME280;13507;49.030;11.940;2023-01-25T00:30:02;98573.13;;;18.39;48.81
25110;BME280;13507;49.030;11.940;2023-01-25T00:31:25;98576.03;;;18.38;49.11
25110;BME280;13507;49.030;11.940;2023-01-25T00:32:47;98570.81;;;18.43;49.32
25110;BME280;13507;49.030;11.940;2023-01-25T00:34:20;98565.66;;;18.36;48.71
25110;BME280;13507;49.030;11.940;2023-01-25T00:35:55;98567.25;;;18.37;48.81
25110;BME280;13507;49.030;11.940;2023-01-25T00:37:22;98563.78;;;18.37;49.50
25110;BME280;13507;49.030;11.940;2023-01-25T00:38:44;98561.13;;;18.37;49.26
25110;BME280;13507;49.030;11.940;2023-01-25T00:40:08;98557.91;;;18.35;49.19
25110;BME280;13507;49.030;11.940;2023-01-25T00:41:31;98555.47;;;18.33;49.23
25110;BME280;13507;49.030;11.940;2023-01-25T00:42:52;98555.69;;;18.32;49.26
25110;BME280;13507;49.030;11.940;2023-01-25T00:44:15;98558.69;;;18.35;48.93
25110;BME280;13507;49.030;11.940;2023-01-25T00:45:38;98550.72;;;18.35;49.41
25110;BME280;13507;49.030;11.940;2023-01-25T00:46:59;98553.59;;;18.34;49.16
25110;BME280;13507;49.030;11.940;2023-01-25T00:48:20;98553.38;;;18.35;49.40
25110;BME280;13507;49.030;11.940;2023-01-25T00:49:41;98552.91;;;18.38;48.89
25110;BME280;13507;49.030;11.940;2023-01-25T00:51:05;98548.03;;;18.35;49.08
25110;BME280;13507;49.030;11.940;2023-01-25T00:52:25;98549.69;;;18.36;49.11
25110;BME280;13507;49.030;11.940;2023-01-25T00:53:46;98551.50;;;18.36;48.99
25110;BME280;13507;49.030;11.940;2023-01-25T00:55:07;98554.50;;;18.39;48.62
25110;BME280;13507;49.030;11.940;2023-01-25T00:56:29;98553.72;;;18.39;48.98
25110;BME280;13507;49.030;11.940;2023-01-25T00:57:49;98551.03;;;18.39;49.13
25110;BME280;13507;49.030;11.940;2023-01-25T00:59:12;98545.16;;;18.37;48.85
25110;BME280;13507;49.030;11.940;2023-01-25T01:00:36;98551.28;;;18.37;49.19
25110;BME280;13507;49.030;11.940;2023-01-25T01:01:56;98541.69;;;18.36;49.00
25110;BME280;13507;49.030;11.940;2023-01-25T01:03:18;98544.91;;;18.38;48.87
25110;BME280;13507;49.030;11.940;2023-01-25T01:04:41;98548.03;;;18.35;49.32
25110;BME280;13507;49.030;11.940;2023-01-25T01:06:05;98550.47;;;18.37;48.85
25110;BME280;13507;49.030;11.940;2023-01-25T01:07:26;98538.47;;;18.34;49.33
25110;BME280;13507;49.030;11.940;2023-01-25T01:08:49;98545.38;;;18.35;48.63
25110;BME280;13507;49.030;11.940;2023-01-25T01:10:10;98548.19;;;18.29;48.77
25110;BME280;13507;49.030;11.940;2023-01-25T01:11:33;98546.75;;;18.38;48.93
25110;BME280;13507;49.030;11.940;2023-01-25T01:12:56;98549.91;;;18.35;48.69
25110;BME280;13507;49.030;11.940;2023-01-25T01:14:19;98549.69;;;18.36;49.19
25110;BME280;13507;49.030;11.940;2023-01-25T01:15:40;98553.13;;;18.37;49.09
25110;BME280;13507;49.030;11.940;2023-01-25T01:17:03;98551.19;;;18.32;49.32
25110;BME280;13507;49.030;11.940;2023-01-25T01:18:26;98552.56;;;18.35;49.23
25110;BME280;13507;49.030;11.940;2023-01-25T01:19:49;98555.00;;;18.36;48.89
25110;BME280;13507;49.030;11.940;2023-01-25T01:21:15;98550.38;;;18.32;49.26
25110;BME280;13507;49.030;11.940;2023-01-25T01:22:36;98557.91;;;18.35;48.72
25110;BME280;13507;49.030;11.940;2023-01-25T01:23:57;98551.03;;;18.39;48.98
25110;BME280;13507;49.030;11.940;2023-01-25T01:25:18;98550.47;;;18.37;48.80
25110;BME280;13507;49.030;11.940;2023-01-25T01:26:39;98563.56;;;18.38;48.69
25110;BME280;13507;49.030;11.940;2023-01-25T01:28:00;98561.13;;;18.37;48.73
25110;BME280;13507;49.030;11.940;2023-01-25T01:29:21;98562.50;;;18.39;48.73
25110;BME280;13507;49.030;11.940;2023-01-25T01:30:45;98561.34;;;18.35;48.94
25110;BME280;13507;49.030;11.940;2023-01-25T01:32:06;98560.31;;;18.36;49.15
25110;BME280;13507;49.030;11.940;2023-01-25T01:33:27;98561.69;;;18.39;48.82
25110;BME280;13507;49.030;11.940;2023-01-25T01:34:47;98562.72;;;18.38;48.96
25110;BME280;13507;49.030;11.940;2023-01-25T01:36:09;98567.47;;;18.36;48.81
25110;BME280;13507;49.030;11.940;2023-01-25T01:37:33;98557.41;;;18.38;48.86
25110;BME280;13507;49.030;11.940;2023-01-25T01:38:54;98561.94;;;18.37;49.17
25110;BME280;13507;49.030;11.940;2023-01-25T01:40:17;98569.34;;;18.35;49.11
25110;BME280;13507;49.030;11.940;2023-01-25T01:41:38;98565.88;;;18.35;49.02
25110;BME280;13507;49.030;11.940;2023-01-25T01:43:01;98565.66;;;18.36;48.88
25110;BME280;13507;49.030;11.940;2023-01-25T01:46:00;98558.22;;;18.38;48.61
25110;BME280;13507;49.030;11.940;2023-01-25T01:47:30;98552.56;;;18.35;48.49
25110;BME280;13507;49.030;11.940;2023-01-25T01:48:57;98560.63;;;18.40;48.51
25110;BME280;13507;49.030;11.940;2023-01-25T01:50:21;98561.34;;;18.35;48.62
25110;BME280;13507;49.030;11.940;2023-01-25T01:51:46;98553.88;;;18.32;49.03
25110;BME280;13507;49.030;11.940;2023-01-25T01:53:15;98557.91;;;18.35;48.70
25110;BME280;13507;49.030;11.940;2023-01-25T01:54:37;98560.31;;;18.36;49.13
25110;BME280;13507;49.030;11.940;2023-01-25T01:56:05;98554.16;;;18.36;49.02
25110;BME280;13507;49.030;11.940;2023-01-25T01:57:28;98559.75;;;18.34;48.80
25110;BME280;13507;49.030;11.940;2023-01-25T01:58:53;98556.25;;;18.34;48.70
25110;BME280;13507;49.030;11.940;2023-01-25T02:00:18;98556.59;;;18.37;48.56
25110;BME280;13507;49.030;11.940;2023-01-25T02:01:40;98557.66;;;18.36;49.05
25110;BME280;13507;49.030;11.940;2023-01-25T02:03:03;98557.31;;;18.33;48.68
25110;BME280;13507;49.030;11.940;2023-01-25T02:04:24;98560.78;;;18.33;48.82
25110;BME280;13507;49.030;11.940;2023-01-25T02:05:50;98553.38;;;18.35;48.65
25110;BME280;13507;49.030;11.940;2023-01-25T02:07:14;98558.69;;;18.35;49.21
25110;BME280;13507;49.030;11.940;2023-01-25T02:08:42;98558.47;;;18.37;49.16
25110;BME280;13507;49.030;11.940;2023-01-25T02:10:05;98560.06;;;18.38;48.45
25110;BME280;13507;49.030;11.940;2023-01-25T02:11:28;98564.25;;;18.34;48.92
25110;BME280;13507;49.030;11.940;2023-01-25T02:12:50;98556.84;;;18.36;48.98
25110;BME280;13507;49.030;11.940;2023-01-25T02:14:12;98557.91;;;18.35;48.42
25110;BME280;13507;49.030;11.940;2023-01-25T02:15:36;98556.25;;;18.34;49.18
25110;BME280;13507;49.030;11.940;2023-01-25T02:16:58;98555.22;;;18.35;48.48
25110;BME280;13507;49.030;11.940;2023-01-25T02:18:21;98558.22;;;18.38;49.02
25110;BME280;13507;49.030;11.940;2023-01-25T02:19:48;98560.88;;;18.38;48.97
25110;BME280;13507;49.030;11.940;2023-01-25T02:21:10;98564.34;;;18.39;48.37
25110;BME280;13507;49.030;11.940;2023-01-25T02:22:33;98562.16;;;18.36;49.10
25110;BME280;13507;49.030;11.940;2023-01-25T02:24:02;98562.16;;;18.36;48.78
25110;BME280;13507;49.030;11.940;2023-01-25T02:25:28;98553.13;;;18.37;48.49
25110;BME280;13507;49.030;11.940;2023-01-25T02:26:49;98550.72;;;18.35;48.48
25110;BME280;13507;49.030;11.940;2023-01-25T02:28:14;98559.75;;;18.34;48.60
25110;BME280;13507;49.030;11.940;2023-01-25T02:29:38;98558.94;;;18.34;48.74
25110;BME280;13507;49.030;11.940;2023-01-25T02:30:59;98562.16;;;18.36;48.53
25110;BME280;13507;49.030;11.940;2023-01-25T02:32:20;98559.75;;;18.34;48.67
25110;BME280;13507;49.030;11.940;2023-01-25T02:33:41;98558.94;;;18.34;48.94
25110;BME280;13507;49.030;11.940;2023-01-25T02:35:04;98559.25;;;18.37;48.44
25110;BME280;13507;49.030;11.940;2023-01-25T02:36:26;98560.88;;;18.38;48.69
25110;BME280;13507;49.030;11.940;2023-01-25T02:37:49;98559.97;;;18.33;48.43
25110;BME280;13507;49.030;11.940;2023-01-25T02:39:11;98553.59;;;18.34;49.01
25110;BME280;13507;49.030;11.940;2023-01-25T02:40:35;98556.53;;;18.32;49.16
25110;BME280;13507;49.030;11.940;2023-01-25T02:42:02;98556.03;;;18.35;48.56
25110;BME280;13507;49.030;11.940;2023-01-25T02:43:26;98560.56;;;18.35;48.86
25110;BME280;13507;49.030;11.940;2023-01-25T02:44:50;98559.25;;;18.37;48.96
25110;BME280;13507;49.030;11.940;2023-01-25T02:46:12;98560.56;;;18.35;48.97
25110;BME280;13507;49.030;11.940;2023-01-25T02:47:37;98561.94;;;18.37;48.92
25110;BME280;13507;49.030;11.940;2023-01-25T02:48:59;98559.03;;;18.39;48.76
25110;BME280;13507;49.030;11.940;2023-01-25T02:50:21;98556.03;;;18.35;48.27
25110;BME280;13507;49.030;11.940;2023-01-25T02:51:44;98558.69;;;18.35;48.36
25110;BME280;13507;49.030;11.940;2023-01-25T02:53:05;98561.34;;;18.35;48.67
25110;BME280;13507;49.030;11.940;2023-01-25T02:54:26;98562.16;;;18.36;48.34
25110;BME280;13507;49.030;11.940;2023-01-25T02:55:51;98563.44;;;18.33;48.58
25110;BME280;13507;49.030;11.940;2023-01-25T02:57:11;98563.22;;;18.35;49.02
25110;BME280;13507;49.030;11.940;2023-01-25T02:58:36;98559.41;;;18.31;48.38
25110;BME280;13507;49.030;11.940;2023-01-25T02:59:59;98555.22;;;18.35;48.78
25110;BME280;13507;49.030;11.940;2023-01-25T03:01:21;98556.25;;;18.34;48.98
25110;BME280;13507;49.030;11.940;2023-01-25T03:02:43;98551.78;;;18.34;48.91
25110;BME280;13507;49.030;11.940;2023-01-25T03:04:04;98553.03;;;18.32;48.84
25110;BME280;13507;49.030;11.940;2023-01-25T03:05:26;98554.66;;;18.33;48.30
25110;BME280;13507;49.030;11.940;2023-01-25T03:06:49;98559.75;;;18.34;48.89
25110;BME280;13507;49.030;11.940;2023-01-25T03:08:10;98554.31;;;18.29;48.69
25110;BME280;13507;49.030;11.940;2023-01-25T03:09:31;98551.91;;;18.28;48.76
25110;BME280;13507;49.030;11.940;2023-01-25T03:10:57;98558.03;;;18.28;48.49
25110;BME280;13507;49.030;11.940;2023-01-25T03:12:19;98552.47;;;18.30;48.41
25110;BME280;13507;49.030;11.940;2023-01-25T03:13:40;98543.69;;;18.29;48.49
25110;BME280;13507;49.030;11.940;2023-01-25T03:15:04;98548.28;;;18.34;48.63
25110;BME280;13507;49.030;11.940;2023-01-25T03:16:25;98546.44;;;18.34;48.73
25110;BME280;13507;49.030;11.940;2023-01-25T03:17:48;98544.34;;;18.36;48.90
25110;BME280;13507;49.030;11.940;2023-01-25T03:19:11;98548.63;;;18.37;48.50
25110;BME280;13507;49.030;11.940;2023-01-25T03:20:36;98539.81;;;18.37;48.42
25110;BME280;13507;49.030;11.940;2023-01-25T03:22:01;98544.00;;;18.33;48.62
25110;BME280;13507;49.030;11.940;2023-01-25T03:23:25;98536.59;;;18.35;48.96
25110;BME280;13507;49.030;11.940;2023-01-25T03:24:46;98535.53;;;18.36;48.44
25110;BME280;13507;49.030;11.940;2023-01-25T03:26:14;98533.94;;;18.35;48.26
25110;BME280;13507;49.030;11.940;2023-01-25T03:27:50;98530.47;;;18.34;48.46
25110;BME280;13507;49.030;11.940;2023-01-25T03:29:12;98531.03;;;18.36;48.81
25110;BME280;13507;49.030;11.940;2023-01-25T03:30:37;98532.88;;;18.36;48.52
25110;BME280;13507;49.030;11.940;2023-01-25T03:31:58;98524.88;;;18.36;48.81
25110;BME280;13507;49.030;11.940;2023-01-25T03:33:19;98528.38;;;18.36;48.37
25110;BME280;13507;49.030;11.940;2023-01-25T03:34:40;98518.03;;;18.40;48.11
25110;BME280;13507;49.030;11.940;2023-01-25T03:36:02;98527.88;;;18.39;48.77
25110;BME280;13507;49.030;11.940;2023-01-25T03:37:25;98522.78;;;18.38;48.58
25110;BME280;13507;49.030;11.940;2023-01-25T03:38:49;98518.53;;;18.37;48.64
25110;BME280;13507;49.030;11.940;2023-01-25T03:40:10;98525.94;;;18.35;48.15
25110;BME280;13507;49.030;11.940;2023-01-25T03:41:37;98518.66;;;18.30;48.85
25110;BME280;13507;49.030;11.940;2023-01-25T03:43:01;98518.66;;;18.30;48.56
25110;BME280;13507;49.030;11.940;2023-01-25T03:44:22;98519.00;;;18.34;48.24
25110;BME280;13507;49.030;11.940;2023-01-25T03:45:43;98517.41;;;18.33;48.23
25110;BME280;13507;49.030;11.940;2023-01-25T03:47:05;98515.31;;;18.35;48.87
25110;BME280;13507;49.030;11.940;2023-01-25T03:48:26;98518.53;;;18.37;48.16
25110;BME280;13507;49.030;11.940;2023-01-25T03:49:47;98516.66;;;18.37;48.53
25110;BME280;13507;49.030;11.940;2023-01-25T03:51:11;98513.78;;;18.39;48.76
25110;BME280;13507;49.030;11.940;2023-01-25T03:52:34;98522.50;;;18.34;48.14
25110;BME280;13507;49.030;11.940;2023-01-25T03:53:59;98512.06;;;18.33;48.61
25110;BME280;13507;49.030;11.940;2023-01-25T03:55:20;98521.44;;;18.35;48.07
25110;BME280;13507;49.030;11.940;2023-01-25T03:56:44;98523.84;;;18.37;48.76
25110;BME280;13507;49.030;11.940;2023-01-25T03:58:11;98518.19;;;18.33;48.21
25110;BME280;13507;49.030;11.940;2023-01-25T03:59:32;98521.44;;;18.35;48.40
25110;BME280;13507;49.030;11.940;2023-01-25T04:00:53;98521.66;;;18.34;48.78
25110;BME280;13507;49.030;11.940;2023-01-25T04:02:18;98517.41;;;18.33;48.75
25110;BME280;13507;49.030;11.940;2023-01-25T04:03:39;98514.97;;;18.31;48.77
25110;BME280;13507;49.030;11.940;2023-01-25T04:05:00;98517.06;;;18.29;48.75
25110;BME280;13507;49.030;11.940;2023-01-25T04:06:21;98511.28;;;18.32;48.63
25110;BME280;13507;49.030;11.940;2023-01-25T04:07:43;98512.63;;;18.35;48.53
25110;BME280;13507;49.030;11.940;2023-01-25T04:09:08;98503.28;;;18.32;48.61
25110;BME280;13507;49.030;11.940;2023-01-25T04:10:32;98505.69;;;18.34;48.73
25110;BME280;13507;49.030;11.940;2023-01-25T04:11:56;98505.69;;;18.34;48.15
25110;BME280;13507;49.030;11.940;2023-01-25T04:13:17;98503.28;;;18.32;48.15
25110;BME280;13507;49.030;11.940;2023-01-25T04:14:42;98494.00;;;18.35;48.68
25110;BME280;13507;49.030;11.940;2023-01-25T04:16:11;98495.59;;;18.36;48.35
25110;BME280;13507;49.030;11.940;2023-01-25T04:17:55;98495.03;;;18.34;48.34
25110;BME280;13507;49.030;11.940;2023-01-25T04:19:17;98495.03;;;18.34;48.24
25110;BME280;13507;49.030;11.940;2023-01-25T04:20:41;98491.25;;;18.30;48.36
25110;BME280;13507;49.030;11.940;2023-01-25T04:22:05;98489.38;;;18.30;48.82
25110;BME280;13507;49.030;11.940;2023-01-25T04:23:29;98492.16;;;18.35;48.44
25110;BME280;13507;49.030;11.940;2023-01-25T04:24:50;98482.78;;;18.33;48.13
25110;BME280;13507;49.030;11.940;2023-01-25T04:26:14;98483.81;;;18.32;48.35
25110;BME280;13507;49.030;11.940;2023-01-25T04:27:44;98482.78;;;18.33;48.22
25110;BME280;13507;49.030;11.940;2023-01-25T04:29:08;98483.81;;;18.32;47.98
25110;BME280;13507;49.030;11.940;2023-01-25T04:30:30;98481.50;;;18.35;47.87
25110;BME280;13507;49.030;11.940;2023-01-25T04:31:52;98477.25;;;18.34;48.46
25110;BME280;13507;49.030;11.940;2023-01-25T04:33:17;98475.28;;;18.30;48.30
25110;BME280;13507;49.030;11.940;2023-01-25T04:34:40;98477.25;;;18.34;48.30
25110;BME280;13507;49.030;11.940;2023-01-25T04:36:06;98472.72;;;18.35;48.21
25110;BME280;13507;49.030;11.940;2023-01-25T04:37:27;98467.63;;;18.33;48.21
25110;BME280;13507;49.030;11.940;2023-01-25T04:38:50;98461.50;;;18.33;48.40
25110;BME280;13507;49.030;11.940;2023-01-25T04:40:14;98464.41;;;18.31;48.19
25110;BME280;13507;49.030;11.940;2023-01-25T04:41:38;98462.53;;;18.32;48.27
25110;BME280;13507;49.030;11.940;2023-01-25T04:43:03;98458.84;;;18.33;48.28
25110;BME280;13507;49.030;11.940;2023-01-25T04:44:27;98459.88;;;18.32;48.56
25110;BME280;13507;49.030;11.940;2023-01-25T04:45:51;98456.66;;;18.30;48.28
25110;BME280;13507;49.030;11.940;2023-01-25T04:47:17;98456.97;;;18.33;48.11
25110;BME280;13507;49.030;11.940;2023-01-25T04:48:42;98462.31;;;18.33;48.15
25110;BME280;13507;49.030;11.940;2023-01-25T04:50:03;98453.28;;;18.34;48.40
25110;BME280;13507;49.030;11.940;2023-01-25T04:51:27;98456.75;;;18.35;48.20
25110;BME280;13507;49.030;11.940;2023-01-25T04:52:48;98450.13;;;18.37;48.07
25110;BME280;13507;49.030;11.940;2023-01-25T04:54:10;98448.03;;;18.39;48.13
25110;BME280;13507;49.030;11.940;2023-01-25T04:55:33;98450.13;;;18.37;48.42
25110;BME280;13507;49.030;11.940;2023-01-25T04:57:00;98449.09;;;18.38;48.19
25110;BME280;13507;49.030;11.940;2023-01-25T04:58:23;98447.78;;;18.41;47.81
25110;BME280;13507;49.030;11.940;2023-01-25T04:59:47;98441.41;;;18.42;48.20
25110;BME280;13507;49.030;11.940;2023-01-25T05:01:08;98451.47;;;18.40;47.88
25110;BME280;13507;49.030;11.940;2023-01-25T05:02:30;98452.88;;;18.42;48.35
25110;BME280;13507;49.030;11.940;2023-01-25T05:03:54;98446.72;;;18.42;48.46
25110;BME280;13507;49.030;11.940;2023-01-25T05:05:23;98449.38;;;18.42;48.39
25110;BME280;13507;49.030;11.940;2023-01-25T05:06:46;98448.59;;;18.41;47.83
25110;BME280;13507;49.030;11.940;2023-01-25T05:08:07;98446.50;;;18.43;48.26
25110;BME280;13507;49.030;11.940;2023-01-25T05:09:28;98447.78;;;18.41;48.34
25110;BME280;13507;49.030;11.940;2023-01-25T05:10:49;98445.19;;;18.46;48.42
25110;BME280;13507;49.030;11.940;2023-01-25T05:12:48;98455.03;;;18.46;48.19
25110;BME280;13507;49.030;11.940;2023-01-25T05:14:12;98448.91;;;18.45;47.81
25110;BME280;13507;49.030;11.940;2023-01-25T05:15:36;98450.22;;;18.42;48.15
25110;BME280;13507;49.030;11.940;2023-01-25T05:17:00;98451.34;;;18.47;47.94
25110;BME280;13507;49.030;11.940;2023-01-25T05:18:23;98449.94;;;18.44;48.40
25110;BME280;13507;49.030;11.940;2023-01-25T05:19:50;98441.66;;;18.40;48.00
25110;BME280;13507;49.030;11.940;2023-01-25T05:21:14;98443.25;;;18.41;47.93
25110;BME280;13507;49.030;11.940;2023-01-25T05:22:38;98438.03;;;18.47;47.73
25110;BME280;13507;49.030;11.940;2023-01-25T05:23:58;98447.06;;;18.46;48.30
25110;BME280;13507;49.030;11.940;2023-01-25T05:25:24;98442.22;;;18.42;47.75
25110;BME280;13507;49.030;11.940;2023-01-25T05:26:45;98444.97;;;18.48;48.05
25110;BME280;13507;49.030;11.940;2023-01-25T05:28:06;98434.47;;;18.41;48.00
25110;BME280;13507;49.030;11.940;2023-01-25T05:29:57;98443.50;;;18.40;48.32
25110;BME280;13507;49.030;11.940;2023-01-25T05:31:39;98436.06;;;18.42;47.88
25110;BME280;13507;49.030;11.940;2023-01-25T05:33:00;98436.06;;;18.42;48.00
25110;BME280;13507;49.030;11.940;2023-01-25T05:34:21;98427.28;;;18.41;48.50
25110;BME280;13507;49.030;11.940;2023-01-25T05:35:42;98429.94;;;18.41;48.17
25110;BME280;13507;49.030;11.940;2023-01-25T05:37:04;98432.56;;;18.36;48.53
25110;BME280;13507;49.030;11.940;2023-01-25T05:38:26;98427.28;;;18.41;48.23
25110;BME280;13507;49.030;11.940;2023-01-25T05:39:48;98427.28;;;18.41;48.33
25110;BME280;13507;49.030;11.940;2023-01-25T05:41:12;98422.19;;;18.40;48.78
25110;BME280;13507;49.030;11.940;2023-01-25T05:42:36;98426.41;;;18.36;48.40
25110;BME280;13507;49.030;11.940;2023-01-25T05:44:03;98426.16;;;18.37;48.55
25110;BME280;13507;49.030;11.940;2023-01-25T05:45:34;98425.94;;;18.39;48.19
25110;BME280;13507;49.030;11.940;2023-01-25T05:46:56;98422.69;;;18.37;48.37
25110;BME280;13507;49.030;11.940;2023-01-25T05:48:17;98424.47;;;18.31;48.57
25110;BME280;13507;49.030;11.940;2023-01-25T05:49:40;98426.09;;;18.32;48.97
25110;BME280;13507;49.030;11.940;2023-01-25T05:51:06;98424.56;;;18.36;48.68
25110;BME280;13507;49.030;11.940;2023-01-25T05:52:30;98425.59;;;18.35;48.81
25110;BME280;13507;49.030;11.940;2023-01-25T05:53:54;98423.16;;;18.34;48.46
25110;BME280;13507;49.030;11.940;2023-01-25T05:55:16;98430.34;;;18.33;48.72
25110;BME280;13507;49.030;11.940;2023-01-25T05:56:37;98428.03;;;18.37;48.88
25110;BME280;13507;49.030;11.940;2023-01-25T05:57:58;98428.50;;;18.34;48.95
25110;BME280;13507;49.030;11.940;2023-01-25T05:59:19;98420.78;;;18.32;49.37
25110;BME280;13507;49.030;11.940;2023-01-25T06:00:43;98420.78;;;18.32;51.93
25110;BME280;13507;49.030;11.940;2023-01-25T06:02:10;98423.16;;;18.34;52.93
25110;BME280;13507;49.030;11.940;2023-01-25T06:03:32;98424.69;;;18.30;53.12
25110;BME280;13507;49.030;11.940;2023-01-25T06:04:53;98417.03;;;18.33;51.95
25110;BME280;13507;49.030;11.940;2023-01-25T06:06:17;98423.72;;;18.36;53.24
25110;BME280;13507;49.030;11.940;2023-01-25T06:07:38;98419.25;;;18.36;54.87
25110;BME280;13507;49.030;11.940;2023-01-25T06:08:59;98413.34;;;18.34;55.03
25110;BME280;13507;49.030;11.940;2023-01-25T06:10:20;98421.91;;;18.36;52.27
25110;BME280;13507;49.030;11.940;2023-01-25T06:11:43;98416.31;;;18.38;53.77
25110;BME280;13507;49.030;11.940;2023-01-25T06:13:07;98418.41;;;18.36;53.72
25110;BME280;13507;49.030;11.940;2023-01-25T06:14:28;98418.75;;;18.39;53.21
25110;BME280;13507;49.030;11.940;2023-01-25T06:15:53;98416.06;;;18.39;53.14
25110;BME280;13507;49.030;11.940;2023-01-25T06:17:43;98422.47;;;18.38;51.97
25110;BME280;13507;49.030;11.940;2023-01-25T06:19:37;98423.81;;;18.41;52.80
25110;BME280;13507;49.030;11.940;2023-01-25T06:21:22;98420.50;;;18.34;50.31
25110;BME280;13507;49.030;11.940;2023-01-25T06:22:46;98419.25;;;18.36;50.94
25110;BME280;13507;49.030;11.940;2023-01-25T06:24:08;98418.97;;;18.38;50.75
25110;BME280;13507;49.030;11.940;2023-01-25T06:25:29;98418.19;;;18.37;51.05
25110;BME280;13507;49.030;11.940;2023-01-25T06:26:49;98412.06;;;18.37;50.83
25110;BME280;13507;49.030;11.940;2023-01-25T06:28:13;98422.47;;;18.38;49.87
25110;BME280;13507;49.030;11.940;2023-01-25T06:29:33;98422.69;;;18.37;50.03
25110;BME280;13507;49.030;11.940;2023-01-25T06:31:01;98419.81;;;18.38;50.00
25110;BME280;13507;49.030;11.940;2023-01-25T06:32:22;98414.47;;;18.38;49.96
25110;BME280;13507;49.030;11.940;2023-01-25T06:33:46;98420.84;;;18.37;50.05
25110;BME280;13507;49.030;11.940;2023-01-25T06:35:08;98425.13;;;18.38;50.06
25110;BME280;13507;49.030;11.940;2023-01-25T06:36:31;98409.16;;;18.38;49.86
25110;BME280;13507;49.030;11.940;2023-01-25T06:37:53;98418.75;;;18.39;49.91
25110;BME280;13507;49.030;11.940;2023-01-25T06:39:14;98411.00;;;18.38;50.02
25110;BME280;13507;49.030;11.940;2023-01-25T06:40:35;98413.41;;;18.39;50.07
25110;BME280;13507;49.030;11.940;2023-01-25T06:41:56;98423.81;;;18.41;49.67
25110;BME280;13507;49.030;11.940;2023-01-25T06:43:17;98416.88;;;18.40;50.19
25110;BME280;13507;49.030;11.940;2023-01-25T06:44:40;98425.69;;;18.40;50.32
25110;BME280;13507;49.030;11.940;2023-01-25T06:46:07;98421.16;;;18.41;50.09
25110;BME280;13507;49.030;11.940;2023-01-25T06:47:29;98416.88;;;18.40;50.11
25110;BME280;13507;49.030;11.940;2023-01-25T06:48:49;98425.69;;;18.40;50.52
25110;BME280;13507;49.030;11.940;2023-01-25T06:50:10;98420.38;;;18.40;50.68
25110;BME280;13507;49.030;11.940;2023-01-25T06:51:31;98424.06;;;18.39;50.94
25110;BME280;13507;49.030;11.940;2023-01-25T06:52:55;98425.94;;;18.39;51.14
25110;BME280;13507;49.030;11.940;2023-01-25T06:54:18;98416.88;;;18.40;50.89
25110;BME280;13507;49.030;11.940;2023-01-25T06:55:41;98420.38;;;18.40;51.73
25110;BME280;13507;49.030;11.940;2023-01-25T06:57:02;98418.75;;;18.39;51.56
25110;BME280;13507;49.030;11.940;2023-01-25T06:58:23;98422.75;;;18.42;52.51
25110;BME280;13507;49.030;11.940;2023-01-25T06:59:44;98416.63;;;18.41;52.42
25110;BME280;13507;49.030;11.940;2023-01-25T07:01:09;98418.28;;;18.42;52.29
25110;BME280;13507;49.030;11.940;2023-01-25T07:02:34;98419.88;;;18.43;52.36
25110;BME280;13507;49.030;11.940;2023-01-25T07:03:56;98419.41;;;18.47;52.97
25110;BME280;13507;49.030;11.940;2023-01-25T07:05:19;98410.00;;;18.44;52.50
25110;BME280;13507;49.030;11.940;2023-01-25T07:06:40;98415.91;;;18.46;53.32
25110;BME280;13507;49.030;11.940;2023-01-25T07:08:01;98413.81;;;18.48;52.61
25110;BME280;13507;49.030;11.940;2023-01-25T07:09:22;98415.91;;;18.46;52.19
25110;BME280;13507;49.030;11.940;2023-01-25T07:10:51;98411.66;;;18.45;52.87
25110;BME280;13507;49.030;11.940;2023-01-25T07:12:12;98418.34;;;18.48;52.11
25110;BME280;13507;49.030;11.940;2023-01-25T07:13:36;98419.41;;;18.47;52.05
25110;BME280;13507;49.030;11.940;2023-01-25T07:14:59;98414.31;;;18.45;52.54
25110;BME280;13507;49.030;11.940;2023-01-25T07:16:22;98415.66;;;18.48;52.74
25110;BME280;13507;49.030;11.940;2023-01-25T07:17:46;98414.63;;;18.49;52.56
25110;BME280;13507;49.030;11.940;2023-01-25T07:19:09;98417.53;;;18.47;52.52